createdAt,value
2023-03-24T00:01:39.624Z,65.95
2023-03-24T00:04:09.221Z,65.93
2023-03-24T00:06:38.681Z,65.91
2023-03-24T00:09:08.048Z,65.90
2023-03-24T00:11:38.090Z,65.93
2023-03-24T00:14:07.374Z,65.94
2023-03-24T00:16:38.638Z,65.97
2023-03-24T00:19:07.935Z,65.94
2023-03-24T00:21:37.777Z,65.94
2023-03-24T00:24:08.980Z,65.91
2023-03-24T00:26:40.327Z,65.97
2023-03-24T00:29:14.142Z,65.92
2023-03-24T00:31:43.711Z,65.96
2023-03-24T00:34:13.728Z,65.99
2023-03-24T00:36:43.079Z,65.98
2023-03-24T00:39:12.774Z,65.96
2023-03-24T00:41:44.378Z,65.99
2023-03-24T00:44:16.723Z,66.00
2023-03-24T00:46:49.454Z,65.98
2023-03-24T00:49:20.830Z,65.96
2023-03-24T00:51:51.253Z,65.99
2023-03-24T00:54:22.203Z,65.96
2023-03-24T00:56:54.205Z,65.96
2023-03-24T00:59:23.545Z,65.93
2023-03-24T01:01:52.864Z,65.98
2023-03-24T01:04:24.721Z,66.01
2023-03-24T01:06:56.277Z,65.95
2023-03-24T01:09:26.210Z,65.97
2023-03-24T01:11:56.154Z,65.98
2023-03-24T01:14:25.684Z,65.98
2023-03-24T01:16:55.915Z,65.95
2023-03-24T01:19:25.575Z,66.01
2023-03-24T01:21:55.032Z,65.98
2023-03-24T01:24:25.566Z,65.97
2023-03-24T01:26:54.861Z,65.95
2023-03-24T01:29:24.135Z,65.96
2023-03-24T01:31:53.501Z,65.98
2023-03-24T01:34:23.349Z,65.97
2023-03-24T01:36:52.652Z,65.96
2023-03-24T01:39:22.801Z,65.95
2023-03-24T01:41:52.320Z,65.95
2023-03-24T01:44:28.241Z,65.99
2023-03-24T01:46:58.424Z,65.95
2023-03-24T01:49:31.615Z,65.97
2023-03-24T01:52:03.220Z,65.96
2023-03-24T01:54:41.660Z,65.98
2023-03-24T01:57:34.022Z,65.97
2023-03-24T02:00:06.822Z,65.98
2023-03-24T02:03:03.452Z,65.97
2023-03-24T02:05:36.545Z,65.99
2023-03-24T02:08:07.037Z,66.00
2023-03-24T02:10:37.759Z,66.01
2023-03-24T02:13:09.941Z,66.06
2023-03-24T02:15:46.049Z,66.04
2023-03-24T02:18:36.934Z,66.07
2023-03-24T02:21:24.735Z,66.07
2023-03-24T02:24:18.418Z,66.08
2023-03-24T02:26:58.306Z,66.05
2023-03-24T02:29:51.053Z,66.09
2023-03-24T02:32:32.459Z,66.10
2023-03-24T02:35:11.120Z,66.08
2023-03-24T02:38:09.594Z,66.08
2023-03-24T02:40:48.341Z,66.08
2023-03-24T02:43:24.436Z,66.06
2023-03-24T02:45:59.924Z,66.08
2023-03-24T02:48:44.321Z,66.10
2023-03-24T02:51:23.208Z,66.09
2023-03-24T02:54:16.945Z,66.09
2023-03-24T02:57:01.959Z,66.16
2023-03-24T02:59:44.282Z,66.09
2023-03-24T03:02:33.445Z,66.14
2023-03-24T03:05:21.181Z,66.14
2023-03-24T03:07:51.999Z,66.20
2023-03-24T03:10:24.266Z,66.23
2023-03-24T03:12:56.836Z,66.21
2023-03-24T03:15:29.742Z,66.24
2023-03-24T03:18:08.017Z,66.21
2023-03-24T03:20:42.161Z,66.18
2023-03-24T03:23:14.262Z,66.19
2023-03-24T03:25:49.472Z,66.19
2023-03-24T03:28:22.215Z,66.14
2023-03-24T03:30:55.316Z,66.14
2023-03-24T03:33:43.178Z,66.03
2023-03-24T03:36:21.789Z,66.03
2023-03-24T03:39:00.556Z,66.19
2023-03-24T03:41:30.267Z,66.16
2023-03-24T03:43:59.731Z,66.23
2023-03-24T03:46:29.966Z,66.14
2023-03-24T03:48:59.885Z,66.15
2023-03-24T03:51:29.542Z,66.13
2023-03-24T03:54:01.352Z,66.17
2023-03-24T03:56:34.446Z,66.15
2023-03-24T03:59:27.147Z,66.20
2023-03-24T04:01:57.023Z,66.16
2023-03-24T04:05:05.680Z,66.12
2023-03-24T04:07:35.219Z,66.10
2023-03-24T04:10:23.963Z,66.16
2023-03-24T04:13:14.036Z,66.12
2023-03-24T04:16:39.669Z,66.12
2023-03-24T04:19:19.842Z,66.13
2023-03-24T04:22:03.013Z,66.11
2023-03-24T04:24:54.821Z,66.12
2023-03-24T04:28:02.080Z,66.11
2023-03-24T04:30:40.393Z,66.14
2023-03-24T04:33:35.228Z,66.12
2023-03-24T04:36:07.874Z,66.08
2023-03-24T04:38:38.960Z,66.10
2023-03-24T04:41:14.103Z,66.08
2023-03-24T04:43:44.689Z,66.07
2023-03-24T04:46:15.854Z,66.07
2023-03-24T04:48:49.872Z,66.08
2023-03-24T04:51:28.784Z,66.09
2023-03-24T04:54:15.356Z,66.08
2023-03-24T04:56:51.420Z,66.07
2023-03-24T04:59:22.707Z,66.04
2023-03-24T05:01:52.426Z,66.06
2023-03-24T05:04:31.158Z,66.08
2023-03-24T05:07:03.910Z,66.07
2023-03-24T05:09:33.571Z,66.10
2023-03-24T05:12:03.838Z,66.08
2023-03-24T05:14:34.859Z,66.07
2023-03-24T05:17:06.166Z,66.08
2023-03-24T05:19:36.487Z,66.04
2023-03-24T05:22:06.415Z,66.07
2023-03-24T05:24:35.973Z,66.05
2023-03-24T05:27:05.624Z,66.01
2023-03-24T05:29:35.386Z,66.00
2023-03-24T05:32:05.106Z,66.04
2023-03-24T05:34:34.445Z,66.07
2023-03-24T05:37:09.883Z,66.03
2023-03-24T05:39:39.133Z,66.02
2023-03-24T05:42:10.539Z,66.07
2023-03-24T05:44:39.862Z,66.07
2023-03-24T05:47:12.923Z,66.06
2023-03-24T05:49:43.904Z,66.06
2023-03-24T05:52:16.041Z,66.04
2023-03-24T05:54:48.885Z,66.03
2023-03-24T05:57:21.249Z,66.04
2023-03-24T05:59:55.861Z,66.04
2023-03-24T06:02:43.702Z,66.03
2023-03-24T06:05:14.922Z,66.02
2023-03-24T06:07:45.205Z,66.03
2023-03-24T06:10:16.355Z,66.06
2023-03-24T06:12:47.511Z,66.01
2023-03-24T06:15:17.989Z,66.01
2023-03-24T06:17:50.369Z,66.02
2023-03-24T06:20:24.217Z,66.02
2023-03-24T06:23:00.049Z,65.99
2023-03-24T06:25:31.333Z,65.97
2023-03-24T06:28:04.401Z,65.99
2023-03-24T06:30:34.648Z,65.96
2023-03-24T06:33:07.067Z,65.98
2023-03-24T06:35:36.760Z,65.92
2023-03-24T06:38:08.103Z,65.89
2023-03-24T06:40:39.140Z,65.92
2023-03-24T06:43:09.308Z,65.91
2023-03-24T06:45:40.363Z,65.88
2023-03-24T06:48:11.703Z,65.89
2023-03-24T06:50:41.359Z,65.86
2023-03-24T06:53:12.459Z,65.84
2023-03-24T06:55:42.392Z,65.80
2023-03-24T06:58:12.720Z,65.80
2023-03-24T07:00:44.523Z,65.78
2023-03-24T07:03:17.621Z,65.75
2023-03-24T07:05:48.734Z,65.74
2023-03-24T07:10:52.475Z,65.72
2023-03-24T07:13:22.056Z,65.69
2023-03-24T07:15:53.332Z,65.75
2023-03-24T07:18:22.726Z,65.71
2023-03-24T07:20:53.771Z,65.70
2023-03-24T07:23:25.615Z,65.68
2023-03-24T07:25:56.651Z,65.67
2023-03-24T07:28:43.922Z,65.68
2023-03-24T07:31:13.987Z,65.67
2023-03-24T07:33:44.021Z,65.65
2023-03-24T07:36:13.313Z,65.55
2023-03-24T07:38:42.803Z,65.24
2023-03-24T07:41:13.836Z,64.85
2023-03-24T07:43:45.466Z,64.73
2023-03-24T07:46:22.242Z,64.75
2023-03-24T07:48:52.193Z,64.93
2023-03-24T07:51:22.131Z,64.96
2023-03-24T07:53:59.705Z,65.01
2023-03-24T07:56:36.679Z,65.02
2023-03-24T07:59:07.820Z,65.18
2023-03-24T08:01:57.629Z,65.17
2023-03-24T08:04:28.544Z,65.32
2023-03-24T08:07:00.184Z,65.33
2023-03-24T08:09:30.520Z,65.28
2023-03-24T08:12:04.359Z,65.31
2023-03-24T08:14:30.827Z,65.34
2023-03-24T08:17:00.185Z,65.36
2023-03-24T08:19:29.651Z,65.43
2023-03-24T08:21:58.963Z,65.51
2023-03-24T08:24:28.613Z,65.48
2023-03-24T08:26:59.992Z,65.49
2023-03-24T08:29:29.262Z,65.63
2023-03-24T08:31:58.844Z,65.65
2023-03-24T08:34:28.703Z,65.68
2023-03-24T08:36:58.028Z,65.75
2023-03-24T08:39:28.109Z,65.77
2023-03-24T08:41:57.588Z,65.82
2023-03-24T08:44:27.160Z,65.83
2023-03-24T08:46:56.872Z,65.81
2023-03-24T08:49:26.165Z,65.84
2023-03-24T08:51:55.678Z,65.87
2023-03-24T08:54:26.434Z,65.86
2023-03-24T08:56:56.157Z,65.87
2023-03-24T08:59:25.617Z,65.89
2023-03-24T09:01:55.286Z,65.89
2023-03-24T09:04:24.589Z,65.90
2023-03-24T09:06:55.595Z,65.88
2023-03-24T09:09:25.554Z,65.90
2023-03-24T09:11:54.874Z,65.89
2023-03-24T09:14:24.470Z,65.91
2023-03-24T09:16:53.945Z,65.87
2023-03-24T09:19:26.452Z,66.00
2023-03-24T09:21:56.171Z,65.94
2023-03-24T09:24:25.441Z,65.87
2023-03-24T09:26:54.858Z,65.88
2023-03-24T09:29:24.229Z,65.84
2023-03-24T09:31:54.007Z,65.95
2023-03-24T09:34:23.658Z,66.00
2023-03-24T09:36:53.555Z,65.98
2023-03-24T09:39:22.821Z,65.88
2023-03-24T09:41:52.203Z,65.89
2023-03-24T09:44:29.989Z,65.87
2023-03-24T09:47:05.008Z,65.94
2023-03-24T09:49:37.084Z,65.94
2023-03-24T09:52:08.971Z,65.92
2023-03-24T09:54:41.737Z,65.93
2023-03-24T09:57:32.517Z,65.94
2023-03-24T10:00:02.217Z,65.98
2023-03-24T10:02:33.409Z,65.90
2023-03-24T10:05:02.841Z,65.79
2023-03-24T10:07:40.666Z,65.74
2023-03-24T10:10:18.950Z,65.84
2023-03-24T10:12:50.329Z,65.87
2023-03-24T10:15:37.150Z,65.96
2023-03-24T10:18:15.583Z,65.93
2023-03-24T10:20:56.493Z,66.05
2023-03-24T10:23:29.028Z,66.02
2023-03-24T10:26:16.469Z,66.13
2023-03-24T10:29:06.289Z,66.17
2023-03-24T10:31:36.772Z,66.20
2023-03-24T10:34:07.152Z,66.31
2023-03-24T10:36:38.136Z,66.28
2023-03-24T10:39:18.546Z,66.32
2023-03-24T10:41:41.417Z,66.33
2023-03-24T10:44:12.233Z,66.31
2023-03-24T10:46:47.354Z,66.23
2023-03-24T10:49:22.026Z,66.27
2023-03-24T10:51:55.421Z,66.26
2023-03-24T10:54:27.571Z,66.14
2023-03-24T10:57:06.350Z,66.15
2023-03-24T10:59:39.732Z,66.22
2023-03-24T11:02:18.033Z,66.20
2023-03-24T11:04:59.269Z,66.28
2023-03-24T11:07:39.432Z,66.31
2023-03-24T11:10:18.820Z,66.37
2023-03-24T11:13:02.130Z,66.37
2023-03-24T11:15:33.040Z,66.44
2023-03-24T11:18:18.072Z,66.37
2023-03-24T11:20:53.772Z,66.34
2023-03-24T11:23:40.678Z,66.37
2023-03-24T11:26:31.132Z,66.36
2023-03-24T11:29:08.160Z,66.37
2023-03-24T11:31:39.305Z,66.42
2023-03-24T11:34:20.826Z,66.35
2023-03-24T11:37:09.314Z,67.44
2023-03-24T11:39:38.743Z,67.65
2023-03-24T11:42:13.778Z,67.34
2023-03-24T11:44:49.795Z,67.51
2023-03-24T11:47:37.481Z,67.29
2023-03-24T11:50:10.263Z,67.11
2023-03-24T11:52:58.993Z,67.07
2023-03-24T11:55:54.239Z,67.13
2023-03-24T11:58:38.014Z,67.24
2023-03-24T12:01:22.971Z,67.82
2023-03-24T12:04:13.578Z,67.96
2023-03-24T12:06:58.268Z,68.00
2023-03-24T12:09:33.524Z,68.03
2023-03-24T12:12:11.942Z,68.09
2023-03-24T12:14:59.445Z,68.12
2023-03-24T12:17:32.101Z,68.04
2023-03-24T12:20:11.355Z,68.14
2023-03-24T12:23:11.208Z,67.85
2023-03-24T12:26:01.627Z,68.23
2023-03-24T12:28:55.671Z,67.99
2023-03-24T12:31:43.110Z,68.52
2023-03-24T12:34:42.419Z,68.26
2023-03-24T12:37:14.958Z,67.58
2023-03-24T12:39:48.306Z,68.05
2023-03-24T12:42:19.090Z,68.24
2023-03-24T12:45:03.452Z,68.10
2023-03-24T12:48:01.551Z,68.09
2023-03-24T12:50:43.238Z,68.00
2023-03-24T12:53:28.379Z,68.08
2023-03-24T12:56:01.549Z,67.95
2023-03-24T12:58:43.377Z,67.76
2023-03-24T13:01:18.835Z,67.34
2023-03-24T13:03:51.837Z,67.15
2023-03-24T13:06:30.748Z,67.16
2023-03-24T13:09:06.095Z,67.90
2023-03-24T13:11:38.537Z,67.95
2023-03-24T13:14:11.371Z,67.91
2023-03-24T13:16:41.817Z,67.74
2023-03-24T13:19:17.193Z,67.85
2023-03-24T13:21:46.935Z,67.77
2023-03-24T13:24:17.062Z,67.66
2023-03-24T13:26:55.608Z,67.65
2023-03-24T13:29:38.422Z,67.53
2023-03-24T13:32:04.693Z,67.57
2023-03-24T13:34:40.005Z,67.51
2023-03-24T13:37:24.290Z,67.58
2023-03-24T13:39:57.038Z,67.50
2023-03-24T13:42:34.809Z,67.53
2023-03-24T13:45:06.317Z,67.48
2023-03-24T13:47:57.866Z,67.47
2023-03-24T13:50:27.399Z,67.38
2023-03-24T13:52:57.051Z,67.23
2023-03-24T13:55:30.234Z,67.18
2023-03-24T13:58:01.967Z,66.94
2023-03-24T14:00:31.680Z,66.87
2023-03-24T14:03:17.214Z,66.87
2023-03-24T14:06:05.436Z,66.91
2023-03-24T14:08:51.084Z,67.01
2023-03-24T14:11:39.050Z,67.02
2023-03-24T14:14:17.877Z,67.08
2023-03-24T14:17:07.190Z,67.03
2023-03-24T14:19:40.623Z,66.96
2023-03-24T14:22:15.774Z,66.93
2023-03-24T14:24:47.132Z,66.93
2023-03-24T14:27:41.206Z,66.91
2023-03-24T14:30:26.141Z,65.57
2023-03-24T14:32:58.562Z,65.36
2023-03-24T14:35:45.931Z,65.26
2023-03-24T14:38:21.544Z,65.28
2023-03-24T14:40:53.752Z,65.28
2023-03-24T14:43:31.578Z,65.23
2023-03-24T14:46:06.635Z,65.29
2023-03-24T14:48:56.784Z,65.30
2023-03-24T14:51:41.483Z,65.28
2023-03-24T14:54:31.500Z,65.27
2023-03-24T14:57:00.985Z,65.33
2023-03-24T14:59:36.727Z,65.29
2023-03-24T15:02:30.206Z,65.37
2023-03-24T15:05:21.965Z,65.46
2023-03-24T15:08:08.551Z,65.47
2023-03-24T15:10:58.384Z,65.51
2023-03-24T15:13:30.625Z,65.50
2023-03-24T15:16:01.236Z,65.56
2023-03-24T15:18:31.107Z,65.66
2023-03-24T15:21:00.828Z,65.67
2023-03-24T15:23:31.241Z,65.73
2023-03-24T15:26:00.974Z,65.82
2023-03-24T15:28:31.407Z,65.81
2023-03-24T15:31:01.222Z,65.82
2023-03-24T15:33:35.153Z,65.87
2023-03-24T15:36:04.809Z,65.89
2023-03-24T15:38:35.254Z,65.89
2023-03-24T15:41:10.311Z,65.90
2023-03-24T15:43:49.432Z,65.92
2023-03-24T15:46:30.070Z,65.90
2023-03-24T15:49:00.578Z,65.87
2023-03-24T15:51:49.332Z,65.96
2023-03-24T15:54:27.394Z,65.94
2023-03-24T15:57:05.594Z,65.95
2023-03-24T15:59:37.211Z,65.96
2023-03-24T16:02:09.640Z,65.95
2023-03-24T16:04:39.379Z,66.02
2023-03-24T16:07:11.059Z,66.00
2023-03-24T16:09:40.963Z,66.00
2023-03-24T16:12:12.013Z,65.95
2023-03-24T16:14:41.718Z,66.00
2023-03-24T16:17:11.199Z,65.97
2023-03-24T16:19:40.738Z,65.98
2023-03-24T16:22:12.326Z,65.94
2023-03-24T16:24:41.817Z,65.93
2023-03-24T16:27:12.992Z,65.94
2023-03-24T16:29:43.398Z,65.94
2023-03-24T16:32:12.745Z,65.90
2023-03-24T16:34:42.310Z,65.97
2023-03-24T16:37:11.605Z,65.94
2023-03-24T16:39:40.902Z,65.93
2023-03-24T16:42:10.578Z,65.94
2023-03-24T16:44:40.153Z,65.97
2023-03-24T16:47:11.860Z,65.92
2023-03-24T16:49:41.372Z,65.98
2023-03-24T16:52:13.432Z,65.96
2023-03-24T16:54:42.697Z,65.98
2023-03-24T16:57:12.393Z,65.99
2023-03-24T16:59:41.886Z,66.01
2023-03-24T17:02:11.558Z,65.99
2023-03-24T17:04:41.315Z,66.02
2023-03-24T17:07:11.078Z,65.99
2023-03-24T17:09:40.706Z,66.00
2023-03-24T17:12:11.150Z,66.01
2023-03-24T17:14:40.442Z,65.99
2023-03-24T17:17:11.920Z,65.94
2023-03-24T17:19:43.278Z,65.99
2023-03-24T17:22:14.229Z,65.96
2023-03-24T17:24:43.801Z,65.97
2023-03-24T17:27:19.519Z,65.97
2023-03-24T17:29:49.157Z,65.95
2023-03-24T17:32:20.537Z,65.95
2023-03-24T17:34:49.748Z,65.92
2023-03-24T17:37:19.332Z,65.89
2023-03-24T17:39:48.831Z,65.93
2023-03-24T17:42:18.129Z,65.94
2023-03-24T17:44:47.402Z,65.88
2023-03-24T17:47:16.972Z,65.91
2023-03-24T17:49:46.742Z,65.86
2023-03-24T17:52:16.100Z,65.84
2023-03-24T17:54:45.979Z,65.94
2023-03-24T17:57:15.642Z,65.88
2023-03-24T17:59:45.800Z,65.89
2023-03-24T18:02:15.545Z,65.89
2023-03-24T18:04:45.161Z,65.91
2023-03-24T18:07:14.809Z,65.84
2023-03-24T18:09:44.409Z,65.80
2023-03-24T18:12:13.796Z,65.78
2023-03-24T18:14:43.162Z,65.70
2023-03-24T18:17:12.816Z,65.63
2023-03-24T18:19:43.211Z,65.61
2023-03-24T18:22:12.488Z,65.58
2023-03-24T18:24:41.999Z,65.57
2023-03-24T18:27:11.457Z,65.66
2023-03-24T18:29:41.267Z,65.64
2023-03-24T18:32:10.906Z,65.68
2023-03-24T18:34:43.035Z,65.67
2023-03-24T18:37:14.091Z,65.58
2023-03-24T18:39:43.915Z,65.72
2023-03-24T18:42:13.783Z,65.60
2023-03-24T18:44:44.805Z,65.68
2023-03-24T18:47:14.545Z,65.72
2023-03-24T18:49:44.205Z,65.81
2023-03-24T18:52:15.151Z,65.79
2023-03-24T18:54:45.363Z,65.82
2023-03-24T18:57:14.866Z,65.78
2023-03-24T18:59:44.466Z,65.71
2023-03-24T19:02:15.561Z,65.79
2023-03-24T19:04:45.432Z,65.84
2023-03-24T19:07:14.905Z,65.82
2023-03-24T19:09:44.510Z,65.80
2023-03-24T19:12:15.593Z,65.78
2023-03-24T19:14:45.192Z,65.80
2023-03-24T19:17:14.758Z,65.83
2023-03-24T19:19:44.223Z,65.86
2023-03-24T19:22:15.551Z,65.87
2023-03-24T19:24:44.913Z,65.85
2023-03-24T19:27:14.385Z,65.88
2023-03-24T19:29:44.147Z,65.87
2023-03-24T19:32:13.425Z,65.85
2023-03-24T19:34:46.134Z,65.86
2023-03-24T19:37:15.847Z,65.90
2023-03-24T19:39:46.115Z,65.84
2023-03-24T19:42:15.923Z,65.85
2023-03-24T19:44:45.516Z,65.86
2023-03-24T19:47:14.963Z,65.88
2023-03-24T19:49:45.090Z,65.85
2023-03-24T19:52:14.694Z,65.86
2023-03-24T19:54:44.248Z,65.86
2023-03-24T19:57:13.654Z,65.87
2023-03-24T19:59:43.013Z,65.85
2023-03-24T20:02:17.101Z,65.86
2023-03-24T20:04:46.843Z,65.88
2023-03-24T20:07:16.483Z,65.83
2023-03-24T20:09:45.797Z,65.83
2023-03-24T20:12:15.549Z,65.82
2023-03-24T20:14:45.892Z,65.81
2023-03-24T20:17:18.360Z,65.86
2023-03-24T20:19:48.180Z,65.87
2023-03-24T20:22:17.729Z,65.85
2023-03-24T20:24:48.198Z,65.87
2023-03-24T20:27:17.620Z,65.88
2023-03-24T20:29:47.015Z,65.86
2023-03-24T20:32:16.315Z,65.85
2023-03-24T20:34:45.777Z,65.83
2023-03-24T20:37:16.031Z,65.81
2023-03-24T20:39:45.657Z,65.86
2023-03-24T20:42:16.948Z,65.86
2023-03-24T20:44:46.311Z,65.86
2023-03-24T20:47:16.121Z,65.88
2023-03-24T20:49:45.513Z,65.85
2023-03-24T20:52:17.212Z,65.79
2023-03-24T20:54:46.598Z,65.82
2023-03-24T20:57:17.695Z,65.81
2023-03-24T20:59:48.695Z,65.54
2023-03-24T21:02:19.020Z,65.25
2023-03-24T21:04:48.509Z,65.16
2023-03-24T21:07:18.681Z,65.18
2023-03-24T21:09:48.122Z,65.10
2023-03-24T21:12:17.598Z,65.07
2023-03-24T21:14:47.461Z,65.18
2023-03-24T21:17:18.862Z,65.13
2023-03-24T21:19:48.242Z,65.21
2023-03-24T21:22:17.605Z,65.17
2023-03-24T21:24:47.503Z,65.22
2023-03-24T21:27:17.345Z,65.23
2023-03-24T21:29:47.132Z,65.20
2023-03-24T21:32:16.538Z,65.23
2023-03-24T21:34:46.724Z,65.26
2023-03-24T21:37:17.606Z,65.35
2023-03-24T21:39:47.129Z,65.42
2023-03-24T21:42:25.734Z,65.30
2023-03-24T21:44:57.716Z,65.40
2023-03-24T21:47:35.104Z,65.46
2023-03-24T21:50:12.390Z,65.51
2023-03-24T21:52:48.365Z,65.50
2023-03-24T21:55:30.850Z,65.42
2023-03-24T21:58:06.913Z,65.42
2023-03-24T22:00:41.168Z,65.53
2023-03-24T22:03:12.684Z,65.50
2023-03-24T22:05:45.158Z,65.47
2023-03-24T22:08:19.277Z,65.42
2023-03-24T22:10:56.706Z,65.49
2023-03-24T22:13:38.329Z,65.50
2023-03-24T22:16:11.845Z,65.53
2023-03-24T22:18:41.978Z,65.52
2023-03-24T22:21:12.497Z,65.50
2023-03-24T22:23:42.945Z,65.53
2023-03-24T22:26:19.727Z,65.50
2023-03-24T22:28:53.500Z,65.41
2023-03-24T22:31:24.146Z,65.40
2023-03-24T22:33:53.857Z,65.46
2023-03-24T22:36:23.258Z,65.39
2023-03-24T22:38:53.477Z,65.37
2023-03-24T22:41:25.232Z,65.42
2023-03-24T22:43:54.858Z,65.41
2023-03-24T22:46:24.770Z,65.38
2023-03-24T22:48:54.098Z,65.37
2023-03-24T22:51:23.468Z,65.28
2023-03-24T22:53:53.295Z,65.35
2023-03-24T22:56:22.753Z,65.28
2023-03-24T22:58:52.473Z,65.33
2023-03-24T23:01:22.032Z,65.27
2023-03-24T23:03:51.445Z,65.31
2023-03-24T23:06:21.973Z,65.33
2023-03-24T23:08:52.957Z,65.34
2023-03-24T23:11:22.813Z,65.38
2023-03-24T23:13:52.296Z,65.32
2023-03-24T23:16:22.426Z,65.31
2023-03-24T23:18:52.070Z,65.28
2023-03-24T23:21:21.535Z,65.29
2023-03-24T23:23:51.308Z,65.27
2023-03-24T23:26:26.242Z,65.31
2023-03-24T23:28:52.325Z,65.29
2023-03-24T23:31:24.696Z,65.26
2023-03-24T23:33:56.634Z,65.27
2023-03-24T23:36:29.451Z,65.23
2023-03-24T23:38:59.005Z,65.22
2023-03-24T23:41:28.616Z,65.24
2023-03-24T23:44:00.698Z,65.28
2023-03-24T23:46:33.183Z,65.25
2023-03-24T23:49:02.646Z,65.21
2023-03-24T23:51:31.976Z,65.22
2023-03-24T23:54:01.592Z,65.20
2023-03-24T23:56:32.933Z,65.18
2023-03-24T23:59:03.027Z,65.09
